Terminal Aerodrome Forecast
Issued by NWS

Home | Current Version | Previous Version | Text Only | Print | Product List | Glossary On
Versions: 1 2 3 4 5 6 7 8 9 10 11 12 13 14 15 16 17 18 19 20 21 22 23 24 25 26 27 28 29 30 31 32 33 34 35 36 37 38 39 40 41
408
FTUS45 KBOI 201740
TAFJER
TAF
KJER 201740Z 2018/2118 06015KT P6SM BKN050
     FM202000 06020G30KT P6SM SCT035 OVC050
     FM210500 05015KT P6SM VCSH SCT030 OVC050
     FM210800 06011KT 2SM -SHSN BR OVC025
     FM211400 22007KT P6SM VCSH SCT025 OVC035=

USA.gov is the U.S. government's official web portal to all federal, state and local government web resources and services.